createdAt,value
2023-05-08T00:01:31.049Z,16.10
2023-05-08T00:03:58.134Z,16.11
2023-05-08T00:06:25.201Z,16.02
2023-05-08T00:08:52.434Z,15.93
2023-05-08T00:11:19.390Z,15.74
2023-05-08T00:13:46.402Z,15.81
2023-05-08T00:16:13.560Z,15.72
2023-05-08T00:18:40.669Z,15.74
2023-05-08T00:21:07.694Z,15.76
2023-05-08T00:23:34.943Z,15.65
2023-05-08T00:26:01.902Z,15.60
2023-05-08T00:28:28.977Z,15.58
2023-05-08T00:30:56.051Z,15.66
2023-05-08T00:33:23.020Z,15.64
2023-05-08T00:35:50.665Z,15.62
2023-05-08T00:38:17.738Z,15.62
2023-05-08T00:40:44.954Z,15.58
2023-05-08T00:43:11.881Z,15.52
2023-05-08T00:45:40.298Z,15.44
2023-05-08T00:48:08.413Z,15.43
2023-05-08T00:50:36.608Z,15.38
2023-05-08T00:53:05.032Z,15.41
2023-05-08T00:55:33.028Z,15.37
2023-05-08T00:58:00.523Z,15.39
2023-05-08T01:00:27.734Z,15.39
2023-05-08T01:02:54.966Z,15.40
2023-05-08T01:05:21.902Z,15.34
2023-05-08T01:07:48.906Z,15.36
2023-05-08T01:10:16.655Z,15.42
2023-05-08T01:13:08.100Z,15.26
2023-05-08T01:15:51.610Z,15.32
2023-05-08T01:18:49.960Z,15.28
2023-05-08T01:21:33.034Z,15.24
2023-05-08T01:24:37.538Z,15.19
2023-05-08T01:27:10.290Z,15.11
2023-05-08T01:30:21.092Z,15.15
2023-05-08T01:33:01.432Z,15.26
2023-05-08T01:35:43.458Z,15.15
2023-05-08T01:38:27.165Z,15.11
2023-05-08T01:41:01.248Z,15.00
2023-05-08T01:43:33.668Z,14.97
2023-05-08T01:46:06.503Z,14.91
2023-05-08T01:48:35.857Z,14.85
2023-05-08T01:51:12.300Z,14.86
2023-05-08T01:53:44.463Z,14.91
2023-05-08T01:56:17.472Z,14.86
2023-05-08T01:58:49.371Z,14.93
2023-05-08T02:01:19.253Z,14.88
2023-05-08T02:03:46.882Z,14.81
2023-05-08T02:06:17.522Z,14.82
2023-05-08T02:08:46.605Z,14.74
2023-05-08T02:11:15.197Z,14.80
2023-05-08T02:13:44.841Z,14.72
2023-05-08T02:16:12.787Z,14.54
2023-05-08T02:18:44.842Z,14.42
2023-05-08T02:21:14.405Z,14.35
2023-05-08T02:23:44.128Z,14.11
2023-05-08T02:26:13.928Z,14.12
2023-05-08T02:28:41.956Z,14.08
2023-05-08T02:31:13.577Z,13.98
2023-05-08T02:33:42.537Z,13.99
2023-05-08T02:36:13.332Z,13.74
2023-05-08T02:38:44.348Z,13.64
2023-05-08T02:41:13.618Z,13.53
2023-05-08T02:43:41.028Z,13.43
2023-05-08T02:46:14.782Z,13.36
2023-05-08T02:48:53.560Z,13.25
2023-05-08T02:51:35.902Z,13.18
2023-05-08T02:54:12.039Z,13.14
2023-05-08T02:56:55.764Z,13.14
2023-05-08T02:59:30.441Z,13.10
2023-05-08T03:02:09.811Z,13.18
2023-05-08T03:04:42.251Z,13.23
2023-05-08T03:07:09.384Z,13.24
2023-05-08T03:09:44.598Z,13.23
2023-05-08T03:12:17.555Z,13.23
2023-05-08T03:15:28.650Z,13.10
2023-05-08T03:17:59.067Z,13.11
2023-05-08T03:20:31.357Z,13.16
2023-05-08T03:22:58.429Z,13.14
2023-05-08T03:25:26.824Z,13.22
2023-05-08T03:27:55.538Z,13.27
2023-05-08T03:30:25.427Z,13.34
2023-05-08T03:33:00.296Z,13.38
2023-05-08T03:35:28.686Z,13.26
2023-05-08T03:37:55.942Z,13.22
2023-05-08T03:40:23.547Z,13.29
2023-05-08T03:42:51.362Z,13.32
2023-05-08T03:45:19.721Z,13.22
2023-05-08T03:47:47.953Z,13.28
2023-05-08T03:50:16.198Z,13.32
2023-05-08T03:52:43.673Z,13.36
2023-05-08T03:55:10.732Z,13.36
2023-05-08T03:57:57.273Z,13.38
2023-05-08T04:01:09.743Z,13.37
2023-05-08T04:03:58.061Z,13.37
2023-05-08T04:06:50.928Z,13.30
2023-05-08T04:09:36.309Z,13.31
2023-05-08T04:12:21.387Z,13.41
2023-05-08T04:15:07.514Z,13.48
2023-05-08T04:17:49.490Z,13.26
2023-05-08T04:20:21.280Z,13.26
2023-05-08T04:22:52.901Z,13.16
2023-05-08T04:25:21.602Z,13.05
2023-05-08T04:27:54.694Z,13.00
2023-05-08T04:30:22.582Z,12.98
2023-05-08T04:32:50.868Z,13.08
2023-05-08T04:35:18.399Z,13.16
2023-05-08T04:37:47.552Z,13.13
2023-05-08T04:40:15.062Z,13.07
2023-05-08T04:42:47.843Z,12.95
2023-05-08T04:45:17.716Z,12.85
2023-05-08T04:47:44.856Z,12.88
2023-05-08T04:50:12.481Z,12.73
2023-05-08T04:52:39.557Z,12.60
2023-05-08T04:55:07.513Z,12.54
2023-05-08T04:57:36.520Z,12.62
2023-05-08T05:00:03.876Z,12.79
2023-05-08T05:02:32.686Z,12.69
2023-05-08T05:05:01.557Z,12.71
2023-05-08T05:07:29.551Z,12.71
2023-05-08T05:09:56.582Z,12.59
2023-05-08T05:12:24.198Z,12.51
2023-05-08T05:14:51.337Z,12.50
2023-05-08T05:17:18.538Z,12.53
2023-05-08T05:19:45.552Z,12.59
2023-05-08T05:22:12.939Z,12.52
2023-05-08T05:24:41.163Z,12.32
2023-05-08T05:27:08.325Z,12.19
2023-05-08T05:29:35.645Z,12.06
2023-05-08T05:32:02.905Z,11.88
2023-05-08T05:34:30.576Z,11.95
2023-05-08T05:36:57.458Z,11.83
2023-05-08T05:39:25.219Z,11.78
2023-05-08T05:41:52.321Z,11.88
2023-05-08T05:44:19.510Z,11.83
2023-05-08T05:46:46.580Z,11.55
2023-05-08T05:49:13.594Z,11.45
2023-05-08T05:51:41.442Z,11.39
2023-05-08T05:54:08.617Z,11.38
2023-05-08T05:56:35.694Z,11.38
2023-05-08T05:59:02.894Z,11.45
2023-05-08T06:01:30.144Z,11.51
2023-05-08T06:03:57.630Z,11.46
2023-05-08T06:06:25.154Z,11.41
2023-05-08T06:08:53.574Z,11.49
2023-05-08T06:11:23.121Z,11.55
2023-05-08T06:13:50.844Z,11.42
2023-05-08T06:16:20.947Z,11.26
2023-05-08T06:18:48.010Z,11.19
2023-05-08T06:21:14.934Z,11.06
2023-05-08T06:23:43.044Z,11.14
2023-05-08T06:26:10.313Z,11.11
2023-05-08T06:28:37.314Z,11.16
2023-05-08T06:31:04.217Z,11.19
2023-05-08T06:33:31.649Z,11.19
2023-05-08T06:35:58.715Z,11.19
2023-05-08T06:38:25.873Z,11.21
2023-05-08T06:40:52.883Z,11.13
2023-05-08T06:43:19.859Z,11.16
2023-05-08T06:45:47.222Z,11.14
2023-05-08T06:48:14.488Z,11.17
2023-05-08T06:50:42.383Z,11.27
2023-05-08T06:53:09.877Z,11.21
2023-05-08T06:55:37.056Z,11.04
2023-05-08T06:58:04.171Z,11.01
2023-05-08T07:00:31.298Z,10.99
2023-05-08T07:02:58.283Z,11.17
2023-05-08T07:05:25.388Z,11.39
2023-05-08T07:07:54.385Z,11.32
2023-05-08T07:10:23.207Z,11.16
2023-05-08T07:12:50.496Z,11.07
2023-05-08T07:15:26.168Z,11.28
2023-05-08T07:17:54.470Z,11.33
2023-05-08T07:20:21.985Z,11.53
2023-05-08T07:22:49.005Z,11.45
2023-05-08T07:25:16.494Z,11.18
2023-05-08T07:27:43.726Z,11.28
2023-05-08T07:30:11.025Z,11.35
2023-05-08T07:32:39.609Z,11.43
2023-05-08T07:35:10.851Z,11.51
2023-05-08T07:37:39.520Z,11.48
2023-05-08T07:40:07.065Z,11.27
2023-05-08T07:42:44.502Z,11.38
2023-05-08T07:45:14.058Z,11.32
2023-05-08T07:47:51.210Z,11.22
2023-05-08T07:50:18.429Z,11.39
2023-05-08T07:52:46.610Z,11.20
2023-05-08T07:55:15.228Z,11.21
2023-05-08T07:57:43.770Z,11.37
2023-05-08T08:00:15.262Z,11.68
2023-05-08T08:02:43.364Z,11.80
2023-05-08T08:05:10.650Z,11.60
2023-05-08T08:07:37.943Z,11.45
2023-05-08T08:10:05.349Z,11.30
2023-05-08T08:12:32.519Z,11.29
2023-05-08T08:14:59.539Z,11.50
2023-05-08T08:17:28.663Z,11.75
2023-05-08T08:19:57.445Z,11.92
2023-05-08T08:22:25.245Z,12.10
2023-05-08T08:24:54.875Z,12.07
2023-05-08T08:27:22.673Z,12.14
2023-05-08T08:29:51.162Z,12.37
2023-05-08T08:32:19.899Z,12.50
2023-05-08T08:34:47.038Z,12.84
2023-05-08T08:37:14.088Z,12.52
2023-05-08T08:39:41.079Z,12.53
2023-05-08T08:42:08.184Z,12.40
2023-05-08T08:44:35.254Z,12.89
2023-05-08T08:47:05.538Z,12.62
2023-05-08T08:49:36.443Z,12.51
2023-05-08T08:52:11.038Z,12.59
2023-05-08T08:54:39.352Z,12.49
2023-05-08T08:57:08.290Z,12.45
2023-05-08T08:59:39.222Z,12.28
2023-05-08T09:02:11.874Z,12.32
2023-05-08T09:04:39.480Z,12.55
2023-05-08T09:07:08.828Z,12.55
2023-05-08T09:09:41.105Z,12.26
2023-05-08T09:12:08.625Z,12.42
2023-05-08T09:14:35.536Z,12.83
2023-05-08T09:17:03.042Z,13.20
2023-05-08T09:19:30.314Z,13.52
2023-05-08T09:22:01.428Z,13.51
2023-05-08T09:24:55.221Z,13.65
2023-05-08T09:27:23.902Z,13.90
2023-05-08T09:30:10.773Z,13.82
2023-05-08T09:32:40.319Z,13.80
2023-05-08T09:35:09.175Z,13.67
2023-05-08T09:37:41.941Z,14.07
2023-05-08T09:40:16.899Z,14.81
2023-05-08T09:42:44.108Z,14.79
2023-05-08T09:45:11.719Z,15.00
2023-05-08T09:47:39.852Z,15.13
2023-05-08T09:50:12.108Z,15.69
2023-05-08T09:52:47.392Z,16.05
2023-05-08T09:55:14.372Z,16.03
2023-05-08T09:58:00.076Z,16.55
2023-05-08T10:00:28.922Z,16.28
2023-05-08T10:03:01.980Z,16.21
2023-05-08T10:05:37.492Z,16.81
2023-05-08T10:08:21.250Z,17.03
2023-05-08T10:10:48.513Z,16.48
2023-05-08T10:13:15.841Z,16.96
2023-05-08T10:15:44.336Z,17.16
2023-05-08T10:18:12.466Z,16.76
2023-05-08T10:20:45.928Z,16.91
2023-05-08T10:23:17.374Z,17.38
2023-05-08T10:25:54.794Z,17.38
2023-05-08T10:28:42.922Z,16.32
2023-05-08T10:31:14.552Z,16.08
2023-05-08T10:33:45.043Z,16.56
2023-05-08T10:36:13.585Z,16.55
2023-05-08T10:38:42.088Z,17.14
2023-05-08T10:41:10.924Z,17.15
2023-05-08T10:43:42.624Z,16.68
2023-05-08T10:46:29.596Z,17.65
2023-05-08T10:49:18.950Z,17.64
2023-05-08T10:52:29.313Z,17.25
2023-05-08T10:55:02.403Z,17.46
2023-05-08T10:57:29.449Z,17.85
2023-05-08T10:59:56.360Z,18.08
2023-05-08T11:02:31.824Z,18.26
2023-05-08T11:05:18.301Z,17.88
2023-05-08T11:07:58.845Z,18.03
2023-05-08T11:10:33.230Z,17.74
2023-05-08T11:13:01.577Z,17.31
2023-05-08T11:15:38.628Z,16.67
2023-05-08T11:18:12.126Z,17.77
2023-05-08T11:20:40.932Z,17.57
2023-05-08T11:23:41.425Z,17.00
2023-05-08T11:26:11.680Z,16.89
2023-05-08T11:28:41.311Z,16.59
2023-05-08T11:31:09.087Z,16.62
2023-05-08T11:33:41.302Z,16.38
2023-05-08T11:36:08.842Z,16.61
2023-05-08T11:38:38.392Z,16.22
2023-05-08T11:41:09.808Z,16.10
2023-05-08T11:43:42.693Z,16.79
2023-05-08T11:46:21.098Z,16.81
2023-05-08T11:48:48.656Z,17.33
2023-05-08T11:51:19.639Z,17.10
2023-05-08T11:53:47.758Z,16.91
2023-05-08T11:56:14.759Z,16.78
2023-05-08T11:58:42.848Z,17.54
2023-05-08T12:01:09.814Z,17.59
2023-05-08T12:03:37.075Z,17.55
2023-05-08T12:06:04.264Z,17.86
2023-05-08T12:08:31.711Z,17.98
2023-05-08T12:10:58.929Z,18.13
2023-05-08T12:13:28.384Z,17.98
2023-05-08T12:15:58.229Z,18.01
2023-05-08T12:18:26.623Z,17.71
2023-05-08T12:20:54.254Z,17.64
2023-05-08T12:23:21.373Z,17.94
2023-05-08T12:25:48.417Z,17.99
2023-05-08T12:28:16.085Z,18.07
2023-05-08T12:30:43.238Z,17.61
2023-05-08T12:33:11.430Z,17.15
2023-05-08T12:35:40.115Z,17.78
2023-05-08T12:38:09.413Z,18.32
2023-05-08T12:40:43.706Z,18.49
2023-05-08T12:43:11.757Z,17.88
2023-05-08T12:45:42.930Z,17.31
2023-05-08T12:48:12.281Z,17.00
2023-05-08T12:50:44.079Z,17.61
2023-05-08T12:53:13.659Z,18.09
2023-05-08T12:55:49.298Z,17.49
2023-05-08T12:58:17.067Z,17.37
2023-05-08T13:00:52.109Z,17.65
2023-05-08T13:03:29.894Z,18.19
2023-05-08T13:06:00.350Z,17.91
2023-05-08T13:08:35.722Z,17.52
2023-05-08T13:11:04.463Z,17.72
2023-05-08T13:13:36.352Z,17.88
2023-05-08T13:16:07.854Z,17.87
2023-05-08T13:18:37.027Z,17.23
2023-05-08T13:21:04.188Z,17.42
2023-05-08T13:23:31.155Z,17.23
2023-05-08T13:25:58.180Z,17.42
2023-05-08T13:28:25.184Z,17.74
2023-05-08T13:30:52.078Z,17.82
2023-05-08T13:33:19.404Z,17.43
2023-05-08T13:35:46.359Z,17.54
2023-05-08T13:38:13.346Z,17.62
2023-05-08T13:40:40.466Z,17.55
2023-05-08T13:43:07.690Z,17.33
2023-05-08T13:45:34.804Z,17.55
2023-05-08T13:48:01.952Z,17.95
2023-05-08T13:50:29.128Z,18.22
2023-05-08T13:52:56.075Z,18.05
2023-05-08T13:55:23.701Z,17.63
2023-05-08T13:57:51.228Z,17.24
2023-05-08T14:00:18.948Z,17.57
2023-05-08T14:02:46.217Z,17.34
2023-05-08T14:05:13.723Z,17.52
2023-05-08T14:07:41.184Z,17.43
2023-05-08T14:10:08.674Z,17.45
2023-05-08T14:12:36.591Z,17.13
2023-05-08T14:15:07.317Z,16.76
2023-05-08T14:17:34.619Z,16.38
2023-05-08T14:20:01.707Z,16.44
2023-05-08T14:22:28.655Z,16.39
2023-05-08T14:24:55.719Z,16.56
2023-05-08T14:27:22.779Z,16.88
2023-05-08T14:29:49.851Z,17.14
2023-05-08T14:32:16.895Z,17.36
2023-05-08T14:34:43.829Z,17.38
2023-05-08T14:37:11.657Z,17.73
2023-05-08T14:39:38.754Z,18.04
2023-05-08T14:42:22.242Z,18.28
2023-05-08T14:44:50.705Z,18.39
2023-05-08T14:47:17.785Z,18.62
2023-05-08T14:49:44.880Z,18.28
2023-05-08T14:52:11.831Z,18.31
2023-05-08T14:54:43.631Z,18.01
2023-05-08T14:57:10.825Z,17.87
2023-05-08T14:59:41.521Z,18.07
2023-05-08T15:02:13.381Z,17.88
2023-05-08T15:04:42.604Z,17.71
2023-05-08T15:07:10.060Z,17.82
2023-05-08T15:09:36.939Z,18.11
2023-05-08T15:12:04.162Z,18.17
2023-05-08T15:14:30.999Z,17.84
2023-05-08T15:16:58.038Z,17.75
2023-05-08T15:19:25.004Z,17.97
2023-05-08T15:21:51.984Z,18.03
2023-05-08T15:24:18.817Z,18.70
2023-05-08T15:26:45.778Z,19.21
2023-05-08T15:29:12.691Z,18.75
2023-05-08T15:31:39.554Z,18.61
2023-05-08T15:34:06.454Z,19.60
2023-05-08T15:36:35.441Z,19.31
2023-05-08T15:39:02.390Z,19.17
2023-05-08T15:41:29.448Z,19.85
2023-05-08T15:43:56.359Z,20.25
2023-05-08T15:46:23.323Z,20.28
2023-05-08T15:48:50.320Z,19.68
2023-05-08T15:51:17.288Z,19.68
2023-05-08T15:53:44.183Z,19.40
2023-05-08T15:56:11.365Z,19.34
2023-05-08T15:58:39.149Z,19.40
2023-05-08T16:01:08.993Z,19.51
2023-05-08T16:03:36.197Z,20.21
2023-05-08T16:06:03.098Z,19.77
2023-05-08T16:08:31.030Z,19.77
2023-05-08T16:10:58.075Z,19.49
2023-05-08T16:13:25.295Z,19.73
2023-05-08T16:15:52.386Z,19.82
2023-05-08T16:18:19.471Z,20.22
2023-05-08T16:20:46.796Z,19.10
2023-05-08T16:23:15.047Z,18.23
2023-05-08T16:25:42.042Z,17.78
2023-05-08T16:28:09.053Z,17.45
2023-05-08T16:30:35.936Z,17.08
2023-05-08T16:33:03.113Z,16.77
2023-05-08T16:35:30.103Z,16.98
2023-05-08T16:37:57.137Z,17.13
2023-05-08T16:40:24.147Z,16.96
2023-05-08T16:42:51.518Z,16.66
2023-05-08T16:45:18.475Z,16.58
2023-05-08T16:47:45.926Z,16.76
2023-05-08T16:50:13.056Z,16.79
2023-05-08T16:52:40.048Z,16.79
2023-05-08T16:55:07.647Z,17.09
2023-05-08T16:57:34.590Z,17.28
2023-05-08T17:00:01.788Z,17.18
2023-05-08T17:02:28.909Z,17.59
2023-05-08T17:04:55.854Z,17.71
2023-05-08T17:07:23.800Z,17.67
2023-05-08T17:09:56.377Z,17.43
2023-05-08T17:12:26.827Z,17.30
2023-05-08T17:14:53.895Z,17.07
2023-05-08T17:17:20.887Z,16.99
2023-05-08T17:19:47.943Z,16.71
2023-05-08T17:22:14.906Z,16.71
2023-05-08T17:24:41.908Z,16.50
2023-05-08T17:27:08.918Z,16.34
2023-05-08T17:29:36.055Z,16.28
2023-05-08T17:32:03.170Z,16.05
2023-05-08T17:34:30.262Z,15.92
2023-05-08T17:36:57.314Z,15.86
2023-05-08T17:39:24.647Z,15.67
2023-05-08T17:41:52.168Z,15.61
2023-05-08T17:44:19.261Z,15.56
2023-05-08T17:46:46.462Z,15.46
2023-05-08T17:49:15.422Z,15.53
2023-05-08T17:51:43.196Z,15.47
2023-05-08T17:54:10.338Z,15.30
2023-05-08T17:56:37.356Z,15.24
2023-05-08T17:59:04.291Z,15.16
2023-05-08T18:01:31.282Z,15.16
2023-05-08T18:03:58.464Z,15.17
2023-05-08T18:06:25.590Z,15.01
2023-05-08T18:08:52.630Z,15.00
2023-05-08T18:11:25.579Z,15.01
2023-05-08T18:13:53.750Z,14.89
2023-05-08T18:16:22.189Z,14.90
2023-05-08T18:18:50.216Z,14.91
2023-05-08T18:21:17.268Z,14.78
2023-05-08T18:23:44.587Z,14.72
2023-05-08T18:26:15.657Z,14.56
2023-05-08T18:28:43.820Z,14.48
2023-05-08T18:31:11.982Z,14.39
2023-05-08T18:33:39.646Z,14.39
2023-05-08T18:36:07.423Z,14.35
2023-05-08T18:38:35.191Z,14.36
2023-05-08T18:41:03.681Z,14.34
2023-05-08T18:43:30.815Z,14.32
2023-05-08T18:45:59.318Z,14.33
2023-05-08T18:48:27.470Z,14.36
2023-05-08T18:50:58.804Z,14.46
2023-05-08T18:53:26.022Z,14.49
2023-05-08T18:55:53.168Z,14.44
2023-05-08T18:58:20.338Z,14.48
2023-05-08T19:00:47.323Z,14.48
2023-05-08T19:03:14.567Z,14.40
2023-05-08T19:05:42.529Z,14.62
2023-05-08T19:08:09.649Z,14.55
2023-05-08T19:10:36.630Z,14.40
2023-05-08T19:13:03.695Z,14.35
2023-05-08T19:15:30.632Z,14.34
2023-05-08T19:17:57.833Z,14.31
2023-05-08T19:20:25.126Z,14.15
2023-05-08T19:22:52.223Z,14.12
2023-05-08T19:25:19.211Z,14.33
2023-05-08T19:27:46.378Z,14.11
2023-05-08T19:30:14.081Z,14.11
2023-05-08T19:32:41.499Z,14.17
2023-05-08T19:35:09.984Z,14.24
2023-05-08T19:37:38.174Z,14.23
2023-05-08T19:40:07.136Z,14.24
2023-05-08T19:42:34.113Z,14.14
2023-05-08T19:45:01.554Z,14.20
2023-05-08T19:47:28.658Z,14.12
2023-05-08T19:49:55.828Z,13.95
2023-05-08T19:52:22.788Z,14.11
2023-05-08T19:54:49.688Z,14.04
2023-05-08T19:57:16.777Z,14.03
2023-05-08T19:59:44.062Z,13.98
2023-05-08T20:02:11.165Z,14.06
2023-05-08T20:04:54.542Z,13.88
2023-05-08T20:07:25.532Z,13.92
2023-05-08T20:09:52.887Z,13.89
2023-05-08T20:12:19.848Z,13.92
2023-05-08T20:14:47.225Z,13.91
2023-05-08T20:17:14.319Z,13.96
2023-05-08T20:19:41.253Z,13.89
2023-05-08T20:22:08.368Z,13.83
2023-05-08T20:24:35.273Z,13.91
2023-05-08T20:27:02.952Z,13.92
2023-05-08T20:29:30.331Z,13.93
2023-05-08T20:31:57.347Z,13.89
2023-05-08T20:34:24.291Z,14.02
2023-05-08T20:36:51.317Z,14.02
2023-05-08T20:39:18.241Z,14.06
2023-05-08T20:41:45.793Z,14.09
2023-05-08T20:44:17.314Z,14.04
2023-05-08T20:46:44.306Z,13.97
2023-05-08T20:49:11.294Z,13.91
2023-05-08T20:51:38.237Z,13.88
2023-05-08T20:54:05.265Z,14.04
2023-05-08T20:56:32.485Z,13.92
2023-05-08T20:58:59.394Z,13.89
2023-05-08T21:01:26.427Z,13.89
2023-05-08T21:03:53.609Z,13.86
2023-05-08T21:06:20.536Z,13.88
2023-05-08T21:08:47.492Z,13.97
2023-05-08T21:11:14.830Z,13.89
2023-05-08T21:13:43.756Z,13.72
2023-05-08T21:16:11.619Z,13.66
2023-05-08T21:18:38.633Z,13.73
2023-05-08T21:21:14.644Z,13.66
2023-05-08T21:23:41.607Z,13.53
2023-05-08T21:26:08.589Z,13.51
2023-05-08T21:28:35.750Z,13.43
2023-05-08T21:31:02.719Z,13.45
2023-05-08T21:33:30.056Z,13.41
2023-05-08T21:35:57.033Z,13.34
2023-05-08T21:38:24.086Z,13.29
2023-05-08T21:40:50.992Z,13.26
2023-05-08T21:43:18.139Z,13.26
2023-05-08T21:45:45.091Z,13.10
2023-05-08T21:48:12.125Z,13.01
2023-05-08T21:50:39.232Z,13.03
2023-05-08T21:53:06.318Z,12.98
2023-05-08T21:55:33.253Z,12.95
2023-05-08T21:58:00.226Z,12.94
2023-05-08T22:00:27.529Z,12.85
2023-05-08T22:02:54.626Z,12.85
2023-05-08T22:05:23.859Z,12.87
2023-05-08T22:07:50.972Z,12.85
2023-05-08T22:10:17.989Z,12.84
2023-05-08T22:12:45.094Z,12.94
2023-05-08T22:15:25.568Z,12.96
2023-05-08T22:17:56.879Z,12.95
2023-05-08T22:20:24.047Z,13.07
2023-05-08T22:22:51.314Z,12.95
2023-05-08T22:25:19.869Z,12.96
2023-05-08T22:27:46.984Z,12.92
2023-05-08T22:30:14.809Z,12.93
2023-05-08T22:32:42.924Z,12.90
2023-05-08T22:35:10.175Z,12.95
2023-05-08T22:37:37.200Z,13.01
2023-05-08T22:40:04.396Z,13.10
2023-05-08T22:42:31.388Z,13.07
2023-05-08T22:44:58.426Z,12.93
2023-05-08T22:47:26.258Z,12.87
2023-05-08T22:49:53.416Z,12.92
2023-05-08T22:52:20.340Z,12.88
2023-05-08T22:54:47.336Z,12.88
2023-05-08T22:57:14.503Z,12.84
2023-05-08T22:59:41.431Z,12.86
2023-05-08T23:02:08.460Z,12.84
2023-05-08T23:04:35.818Z,12.95
2023-05-08T23:07:03.038Z,12.75
2023-05-08T23:09:31.142Z,12.62
2023-05-08T23:11:58.203Z,12.63
2023-05-08T23:14:25.180Z,12.59
2023-05-08T23:16:52.230Z,12.56
2023-05-08T23:19:19.389Z,12.49
2023-05-08T23:21:46.496Z,12.44
2023-05-08T23:24:13.434Z,12.48
2023-05-08T23:26:42.113Z,12.41
2023-05-08T23:29:09.323Z,12.40
2023-05-08T23:31:36.376Z,12.41
2023-05-08T23:34:03.223Z,12.61
2023-05-08T23:36:30.200Z,12.52
2023-05-08T23:38:57.219Z,12.72
2023-05-08T23:41:24.392Z,12.64
2023-05-08T23:43:51.244Z,12.55
2023-05-08T23:46:18.259Z,12.61
2023-05-08T23:48:45.133Z,12.62
2023-05-08T23:51:12.099Z,12.63
2023-05-08T23:53:39.005Z,12.68
2023-05-08T23:56:06.358Z,12.64
2023-05-08T23:58:33.329Z,12.74
